Time;durP1;ratioP1;P1;durP2;ratioP2;P2;SDS_P1;SDS_P2;PMS_P1;PMS_P2;Temp;Humidity;BMP_temperature;BMP_pressure;BME280_temperature;BME280_humidity;BME280_pressure;Samples;Min_cycle;Max_cycle;Signal;HPM_P1;HPM_P2
2021/09/28 00:01:29;;;;;;;17.63;9.68;;;;;;;18.38;73.83;97493.88;5028829;28;20465;-78
2021/09/28 00:03:54;;;;;;;13.07;9.10;;;;;;;18.45;74.13;97515.81;5011933;28;20021;-76
2021/09/28 00:06:20;;;;;;;16.52;10.02;;;;;;;18.25;74.70;97489.75;5030142;28;20037;-76
2021/09/28 00:08:45;;;;;;;19.08;9.90;;;;;;;18.31;75.12;97498.16;5028676;28;20422;-76
2021/09/28 00:11:11;;;;;;;18.13;9.57;;;;;;;18.14;75.28;97482.66;5012111;28;20514;-78
2021/09/28 00:13:38;;;;;;;13.93;8.65;;;;;;;18.21;75.22;97497.28;5012990;28;20039;-76
2021/09/28 00:16:04;;;;;;;11.45;7.68;;;;;;;18.40;73.84;97491.88;5027676;28;20487;-77
2021/09/28 00:18:29;;;;;;;19.45;8.63;;;;;;;18.50;73.72;97497.31;5029076;28;20084;-76
2021/09/28 00:20:55;;;;;;;14.80;8.55;;;;;;;18.36;73.79;97478.78;5013975;28;20022;-77
2021/09/28 00:23:20;;;;;;;13.50;8.05;;;;;;;18.44;73.07;97470.78;5011544;28;20410;-76
2021/09/28 00:25:48;;;;;;;17.90;8.70;;;;;;;18.49;73.25;97490.16;5010611;28;20062;-76
2021/09/28 00:28:19;;;;;;;11.30;8.18;;;;;;;18.50;73.50;97502.72;5012673;28;20074;-76
2021/09/28 00:30:45;;;;;;;13.38;8.57;;;;;;;18.38;73.79;97488.47;5011629;28;20117;-77
2021/09/28 00:33:11;;;;;;;14.77;8.73;;;;;;;18.42;73.51;97487.19;5011167;28;20034;-78
2021/09/28 00:35:37;;;;;;;11.65;8.57;;;;;;;18.48;74.01;97504.72;5024968;28;20006;-77
2021/09/28 00:38:03;;;;;;;13.60;8.82;;;;;;;18.57;72.28;97474.06;5028384;28;20077;-77
2021/09/28 00:40:30;;;;;;;13.50;9.30;;;;;;;18.57;72.54;97474.06;5012680;28;20034;-77
2021/09/28 00:42:56;;;;;;;18.00;9.68;;;;;;;18.55;72.60;97478.75;5026486;28;20019;-77
2021/09/28 00:45:22;;;;;;;14.13;9.60;;;;;;;18.62;72.61;97496.13;5007390;28;20034;-77
2021/09/28 00:47:47;;;;;;;13.27;9.07;;;;;;;18.63;72.79;97487.03;5010560;28;20030;-76
2021/09/28 00:50:13;;;;;;;14.70;8.73;;;;;;;18.53;73.24;97486.19;5009513;28;20026;-76
2021/09/28 00:52:38;;;;;;;16.25;9.00;;;;;;;18.50;73.16;97485.63;5026952;28;20037;-77
2021/09/28 00:55:05;;;;;;;11.90;7.28;;;;;;;18.62;72.12;97484.44;5010315;28;20383;-77
2021/09/28 00:57:31;;;;;;;13.35;6.78;;;;;;;19.03;69.43;97491.31;5003477;28;20498;-76
2021/09/28 00:59:57;;;;;;;10.63;6.22;;;;;;;19.21;68.74;97492.22;4992314;28;20101;-77
2021/09/28 01:02:23;;;;;;;9.80;6.60;;;;;;;19.17;68.01;97472.69;5010303;28;20029;-77
2021/09/28 01:04:48;;;;;;;10.40;5.75;;;;;;;19.46;67.30;97505.13;5011397;28;20087;-79
2021/09/28 01:07:14;;;;;;;12.07;7.40;;;;;;;19.44;67.96;97504.44;5013902;28;20049;-77
2021/09/28 01:09:40;;;;;;;9.10;7.22;;;;;;;19.34;68.39;97503.59;4997602;28;20033;-77
2021/09/28 01:12:07;;;;;;;12.23;7.03;;;;;;;19.23;68.60;97491.06;5010512;28;20117;-77
2021/09/28 01:14:33;;;;;;;8.93;6.80;;;;;;;19.34;68.46;97503.59;4996040;28;20026;-77
2021/09/28 01:16:58;;;;;;;11.15;7.25;;;;;;;19.20;69.19;97496.78;5003888;28;20019;-77
2021/09/28 01:19:24;;;;;;;9.65;6.80;;;;;;;19.11;69.87;97486.00;4998962;28;20022;-78
2021/09/28 01:21:50;;;;;;;15.60;7.82;;;;;;;19.05;71.11;97513.69;5004439;28;20033;-77
2021/09/28 01:24:15;;;;;;;13.98;7.47;;;;;;;18.92;71.90;97514.88;5001575;28;20113;-78
2021/09/28 01:26:41;;;;;;;12.80;8.20;;;;;;;18.75;72.57;97493.13;4997725;28;20030;-77
2021/09/28 01:29:07;;;;;;;13.07;8.57;;;;;;;18.42;74.62;97516.97;5002197;28;20065;-77
2021/09/28 01:31:38;;;;;;;11.38;8.35;;;;;;;18.30;76.24;97507.25;5000468;28;20031;-77
2021/09/28 01:34:05;;;;;;;21.10;9.30;;;;;;;18.18;76.92;97513.00;5003548;28;20023;-77
2021/09/28 01:36:31;;;;;;;15.85;9.25;;;;;;;18.13;77.61;97524.25;4995232;28;20057;-77
2021/09/28 01:38:57;;;;;;;12.15;8.70;;;;;;;17.95;79.34;97512.41;4997005;28;20490;-77
2021/09/28 01:41:23;;;;;;;12.38;8.50;;;;;;;17.93;79.07;97516.25;4983580;28;20085;-77
2021/09/28 01:43:49;;;;;;;16.15;9.38;;;;;;;17.76;80.02;97501.56;4995930;28;20037;-77
2021/09/28 01:46:15;;;;;;;11.18;8.50;;;;;;;17.81;79.82;97512.84;4997264;28;20029;-77
2021/09/28 01:48:47;;;;;;;14.05;8.13;;;;;;;17.90;78.48;97522.81;4995617;28;20061;-77
2021/09/28 01:51:12;;;;;;;15.48;8.52;;;;;;;17.83;78.27;97503.59;5007611;28;20030;-77
2021/09/28 01:53:38;;;;;;;12.13;7.47;;;;;;;17.92;77.07;97522.66;4991812;28;20513;-77
2021/09/28 01:56:04;;;;;;;19.30;8.25;;;;;;;17.83;76.87;97503.59;5001134;28;20021;-77
2021/09/28 01:58:29;;;;;;;16.58;9.85;;;;;;;17.93;78.18;97524.38;4984777;28;20034;-77
2021/09/28 02:00:55;;;;;;;12.93;9.32;;;;;;;17.87;78.38;97537.47;4987726;28;20072;-77
2021/09/28 02:03:21;;;;;;;11.35;7.30;;;;;;;17.82;76.63;97518.09;4982526;28;20042;-77
2021/09/28 02:05:46;;;;;;;11.88;8.23;;;;;;;17.80;77.31;97514.69;5007853;28;20041;-78
2021/09/28 02:08:12;;;;;;;21.60;9.95;;;;;;;17.88;77.90;97522.94;4997413;28;20033;-78
2021/09/28 02:10:38;;;;;;;15.60;9.05;;;;;;;17.82;77.38;97509.97;4997618;28;20034;-78
2021/09/28 02:13:03;;;;;;;13.55;8.90;;;;;;;17.81;77.42;97502.00;5014704;28;20037;-78
2021/09/28 02:15:29;;;;;;;13.88;8.38;;;;;;;17.91;76.48;97518.22;4996650;28;20025;-77
2021/09/28 02:17:55;;;;;;;13.38;7.35;;;;;;;17.92;75.58;97514.53;5015336;28;20029;-78
2021/09/28 02:20:20;;;;;;;10.98;6.45;;;;;;;18.05;74.60;97515.13;5016112;28;20112;-78
2021/09/28 02:22:46;;;;;;;9.07;6.00;;;;;;;18.13;73.37;97507.13;5010965;28;20030;-78
2021/09/28 02:25:13;;;;;;;12.45;6.63;;;;;;;18.16;73.04;97506.84;5008921;28;20038;-77
2021/09/28 02:27:42;;;;;;;6.75;5.13;;;;;;;18.37;71.56;97521.94;5015386;28;20432;-78
2021/09/28 02:30:08;;;;;;;8.25;5.30;;;;;;;18.54;70.30;97525.84;5015946;28;20113;-77
2021/09/28 02:32:34;;;;;;;14.35;5.65;;;;;;;18.63;69.96;97516.81;4990288;28;20104;-77
2021/09/28 02:35:00;;;;;;;19.38;5.45;;;;;;;18.51;70.64;97518.00;4996246;28;20026;-77
2021/09/28 02:37:25;;;;;;;15.45;6.60;;;;;;;18.56;71.15;97523.81;5011895;28;20181;-77
2021/09/28 02:39:51;;;;;;;8.15;5.88;;;;;;;18.43;71.83;97515.97;4987810;28;20054;-77
2021/09/28 02:42:17;;;;;;;9.43;6.80;;;;;;;18.35;71.89;97501.44;4990713;28;20034;-77
2021/09/28 02:44:42;;;;;;;12.52;7.78;;;;;;;18.39;73.22;97532.66;4995431;28;20037;-77
2021/09/28 02:47:08;;;;;;;12.82;8.18;;;;;;;18.06;74.50;97508.69;5007198;28;20026;-78
2021/09/28 02:49:33;;;;;;;8.80;6.38;;;;;;;17.97;73.85;97512.25;5000672;28;20030;-77
2021/09/28 02:51:59;;;;;;;11.20;6.13;;;;;;;18.11;73.81;97528.97;4995657;28;20033;-77
2021/09/28 02:54:24;;;;;;;10.15;6.75;;;;;;;18.15;73.47;97524.13;4996395;28;20019;-77
2021/09/28 02:56:50;;;;;;;8.48;6.75;;;;;;;18.21;73.28;97523.56;4983248;28;20034;-77
2021/09/28 02:59:15;;;;;;;9.30;5.93;;;;;;;18.26;72.21;97529.38;4997210;28;20030;-77
2021/09/28 03:01:41;;;;;;;19.00;7.90;;;;;;;18.31;73.12;97521.66;4995009;28;20022;-77
2021/09/28 03:04:07;;;;;;;20.30;10.50;;;;;;;18.34;74.49;97534.91;4994437;28;20089;-77
2021/09/28 03:06:33;;;;;;;13.88;8.50;;;;;;;18.37;73.44;97545.47;5012331;28;20030;-77
2021/09/28 03:08:58;;;;;;;17.38;9.20;;;;;;;18.30;74.99;97549.78;5006830;28;20026;-76
2021/09/28 03:11:26;;;;;;;17.38;7.70;;;;;;;18.33;73.65;97552.19;4987744;28;20030;-77
2021/09/28 03:13:53;;;;;;;20.48;9.35;;;;;;;18.34;74.71;97556.59;5009374;28;20421;-77
2021/09/28 03:16:19;;;;;;;29.73;10.32;;;;;;;18.24;75.74;97555.75;4995223;28;20026;-77
2021/09/28 03:18:45;;;;;;;24.05;10.63;;;;;;;18.04;76.01;97527.81;5011515;28;20022;-76
2021/09/28 03:21:11;;;;;;;29.33;11.77;;;;;;;17.90;77.09;97525.53;5004943;28;20121;-77
2021/09/28 03:23:36;;;;;;;23.20;10.85;;;;;;;18.02;77.07;97556.03;5009019;28;20081;-77
2021/09/28 03:26:02;;;;;;;27.75;12.52;;;;;;;17.97;77.46;97542.88;5010863;28;20051;-76
2021/09/28 03:28:27;;;;;;;27.60;12.43;;;;;;;18.04;77.24;97543.19;5000180;28;20089;-79
2021/09/28 03:30:53;;;;;;;14.88;8.00;;;;;;;18.04;74.92;97535.06;5007693;28;20026;-76
2021/09/28 03:33:18;;;;;;;19.88;9.43;;;;;;;18.08;75.42;97540.06;5003403;28;20031;-76
2021/09/28 03:35:44;;;;;;;22.63;10.75;;;;;;;18.07;75.91;97542.91;5000274;28;20426;-81
2021/09/28 03:38:10;;;;;;;19.63;10.93;;;;;;;17.99;76.77;97535.50;4995525;28;20046;-76
2021/09/28 03:40:36;;;;;;;16.25;11.52;;;;;;;17.80;78.22;97535.47;4992192;28;20136;-77
2021/09/28 03:43:02;;;;;;;18.77;11.80;;;;;;;17.79;78.85;97545.44;4993385;28;20034;-76
2021/09/28 03:45:27;;;;;;;19.05;11.27;;;;;;;17.60;79.16;97534.56;4991981;28;20084;-76
2021/09/28 03:47:53;;;;;;;21.42;12.80;;;;;;;17.54;79.93;97532.38;4992526;28;20113;-76
2021/09/28 03:50:18;;;;;;;24.65;12.80;;;;;;;17.75;79.72;97538.59;4991173;28;20034;-75
2021/09/28 03:52:44;;;;;;;25.45;12.52;;;;;;;17.47;80.82;97531.25;4992582;28;20141;-76
2021/09/28 03:55:51;;;;;;;21.08;11.85;;;;;;;17.65;80.75;97548.56;4994851;28;20160;-76
2021/09/28 03:58:17;;;;;;;19.25;11.50;;;;;;;17.60;80.97;97553.50;4999006;28;20434;-82
2021/09/28 04:00:43;;;;;;;24.17;12.38;;;;;;;17.52;81.08;97545.19;4978597;28;20022;-82
2021/09/28 04:03:09;;;;;;;20.05;13.60;;;;;;;17.41;82.45;97549.88;4994470;28;20026;-79
2021/09/28 04:05:35;;;;;;;22.00;13.32;;;;;;;17.38;82.49;97553.69;4995489;28;20049;-77
2021/09/28 04:08:02;;;;;;;23.52;12.60;;;;;;;17.35;82.48;97546.69;4994206;28;20513;-77
2021/09/28 04:10:28;;;;;;;23.38;13.57;;;;;;;17.33;82.79;97555.94;5011182;28;20038;-76
2021/09/28 04:12:54;;;;;;;26.50;12.10;;;;;;;17.35;81.89;97540.44;4991553;28;20030;-76
2021/09/28 04:15:24;;;;;;;24.13;13.27;;;;;;;17.38;82.15;97542.84;4977843;28;20014;-77
2021/09/28 04:17:50;;;;;;;39.55;12.63;;;;;;;17.43;81.99;97543.31;4962027;28;20062;-77
2021/09/28 04:20:16;;;;;;;20.30;12.45;;;;;;;17.52;82.79;97556.03;4977691;28;20105;-77
2021/09/28 04:22:42;;;;;;;27.17;13.27;;;;;;;17.53;82.69;97543.34;4961467;28;20121;-77
2021/09/28 04:25:08;;;;;;;16.10;10.43;;;;;;;17.77;78.76;97544.72;4977661;28;20026;-77
2021/09/28 04:27:35;;;;;;;18.17;10.88;;;;;;;17.91;78.17;97531.78;4977642;28;20034;-77
2021/09/28 04:30:02;;;;;;;11.48;9.02;;;;;;;18.00;76.13;97534.50;4977723;28;20105;-77
2021/09/28 04:32:28;;;;;;;12.07;6.80;;;;;;;18.00;74.13;97522.81;4977854;28;20030;-76
2021/09/28 04:34:53;;;;;;;23.83;8.45;;;;;;;18.26;73.97;97542.91;4977491;28;20417;-76
2021/09/28 04:37:19;;;;;;;17.00;7.45;;;;;;;18.32;73.60;97536.94;4977162;28;20426;-77
2021/09/28 04:39:44;;;;;;;13.32;7.07;;;;;;;18.34;73.44;97537.63;5008541;28;20417;-77
2021/09/28 04:42:10;;;;;;;16.48;7.93;;;;;;;18.40;73.48;97539.75;4996938;28;20030;-77
2021/09/28 04:44:36;;;;;;;17.15;9.77;;;;;;;18.31;75.41;97527.94;4995009;28;20049;-77
2021/09/28 04:47:02;;;;;;;19.98;9.77;;;;;;;18.37;76.42;97550.88;4994694;28;20490;-77
2021/09/28 04:49:27;;;;;;;20.48;9.50;;;;;;;18.23;77.54;97538.66;5008996;28;20034;-77
2021/09/28 04:51:53;;;;;;;25.98;14.85;;;;;;;18.20;78.53;97543.50;5009640;28;20496;-77
2021/09/28 04:54:18;;;;;;;22.38;11.23;;;;;;;18.08;75.69;97528.38;4994488;28;20050;-76
2021/09/28 04:56:44;;;;;;;14.93;8.30;;;;;;;18.27;74.75;97541.94;4994817;28;20033;-78
2021/09/28 04:59:09;;;;;;;12.15;6.40;;;;;;;18.21;74.12;97526.25;4994878;28;20022;-76
2021/09/28 05:01:35;;;;;;;13.23;7.05;;;;;;;18.26;74.24;97538.38;4993316;28;20520;-77
2021/09/28 05:04:01;;;;;;;15.63;7.85;;;;;;;18.13;74.76;97524.25;4992522;28;20026;-77
2021/09/28 05:06:26;;;;;;;15.60;9.10;;;;;;;18.15;76.27;97524.94;4994060;28;20057;-76
2021/09/28 05:08:52;;;;;;;19.80;10.18;;;;;;;18.00;77.50;97528.22;4994300;28;20026;-77
2021/09/28 05:11:17;;;;;;;16.15;10.95;;;;;;;17.96;78.20;97518.69;5009207;28;20519;-77
2021/09/28 05:13:43;;;;;;;13.35;9.25;;;;;;;17.99;77.57;97534.66;5009164;28;20030;-77
2021/09/28 05:16:09;;;;;;;13.05;9.50;;;;;;;18.00;77.48;97530.91;4997222;28;20030;-76
2021/09/28 05:18:34;;;;;;;19.30;8.18;;;;;;;18.13;75.88;97547.75;4992806;28;20022;-77
2021/09/28 05:21:01;;;;;;;21.83;10.05;;;;;;;18.03;77.31;97531.50;4992950;28;20034;-78
2021/09/28 05:23:30;;;;;;;19.75;9.70;;;;;;;18.09;77.19;97546.34;4992393;28;20164;-77
2021/09/28 05:25:56;;;;;;;15.10;8.70;;;;;;;18.12;76.78;97546.06;4992512;28;20107;-77
2021/09/28 05:28:35;;;;;;;13.80;8.95;;;;;;;18.07;76.91;97548.31;5009545;28;20066;-77
2021/09/28 05:31:00;;;;;;;14.80;9.05;;;;;;;18.07;77.68;97556.44;4992457;28;20030;-77
2021/09/28 05:33:26;;;;;;;18.42;8.82;;;;;;;18.03;77.47;97547.75;4992878;28;20406;-77
2021/09/28 05:35:53;;;;;;;23.67;8.95;;;;;;;18.18;77.57;97578.00;4992069;28;20026;-77
2021/09/28 05:38:19;;;;;;;19.70;9.30;;;;;;;18.20;77.58;97560.59;4992484;28;20034;-77
2021/09/28 05:40:44;;;;;;;17.40;11.40;;;;;;;18.22;77.49;97546.91;4992541;28;20509;-77
2021/09/28 05:43:10;;;;;;;33.67;13.10;;;;;;;18.27;80.60;97552.75;4993556;28;20422;-77
2021/09/28 05:48:57;;;;;;;30.52;13.40;;;;;;;17.93;92.20;97562.28;4994469;28;20085;-77
2021/09/28 05:51:25;;;;;;;31.00;16.27;;;;;;;17.67;97.42;97553.81;4993533;28;20490;-77
2021/09/28 05:53:51;;;;;;;29.27;14.88;;;;;;;17.33;100.00;97547.84;5005512;28;20068;-77
2021/09/28 05:56:17;;;;;;;29.58;14.48;;;;;;;17.20;100.00;97552.59;4976152;28;20026;-76
2021/09/28 05:58:42;;;;;;;31.20;16.58;;;;;;;17.20;100.00;97563.44;4993487;28;20022;-77
2021/09/28 06:01:08;;;;;;;37.30;19.02;;;;;;;17.10;100.00;97552.56;4993318;28;20022;-77
2021/09/28 06:03:34;;;;;;;29.67;17.95;;;;;;;17.19;100.00;97559.91;4992357;28;20026;-77
2021/09/28 06:06:00;;;;;;;28.30;18.67;;;;;;;17.24;100.00;97581.09;4992175;28;20117;-77
2021/09/28 06:08:26;;;;;;;27.25;19.77;;;;;;;17.33;100.00;97585.69;4996526;28;20100;-77
2021/09/28 06:10:52;;;;;;;38.15;19.52;;;;;;;17.31;100.00;97593.97;4994776;28;20116;-77
2021/09/28 06:13:18;;;;;;;32.40;19.50;;;;;;;17.25;100.00;97582.81;4992186;28;20060;-77
2021/09/28 06:15:43;;;;;;;33.60;19.48;;;;;;;17.27;100.00;97586.22;4995907;28;20095;-77
2021/09/28 06:18:09;;;;;;;30.80;19.00;;;;;;;17.38;100.00;97598.81;5008489;28;20030;-78
2021/09/28 06:20:34;;;;;;;32.30;17.92;;;;;;;17.21;100.00;97601.16;4993628;28;20026;-77
2021/09/28 06:23:00;;;;;;;32.88;17.38;;;;;;;17.39;100.00;97612.19;5008507;28;20031;-77
2021/09/28 06:25:25;;;;;;;27.83;16.80;;;;;;;17.32;100.00;97603.75;4992877;28;20037;-76
2021/09/28 06:27:51;;;;;;;36.83;16.33;;;;;;;17.37;100.00;97616.03;5009298;28;20493;-76
2021/09/28 06:30:26;;;;;;;27.83;14.60;;;;;;;17.29;100.00;97600.47;4995016;28;20029;-75
2021/09/28 06:32:52;;;;;;;28.70;14.73;;;;;;;17.14;100.00;97628.84;5011385;28;20037;-75
2021/09/28 06:35:19;;;;;;;27.73;14.15;;;;;;;16.75;100.00;97608.84;5002505;28;20045;-77
2021/09/28 06:37:44;;;;;;;32.92;16.13;;;;;;;16.66;100.00;97621.28;4992715;28;20054;-76
2021/09/28 06:40:10;;;;;;;35.88;17.85;;;;;;;16.66;100.00;97626.69;4992955;28;20041;-77
2021/09/28 06:42:36;;;;;;;25.80;16.25;;;;;;;16.73;100.00;97644.06;4992888;28;20084;-74
2021/09/28 06:45:02;;;;;;;27.48;18.00;;;;;;;16.84;100.00;97647.72;4991355;28;20026;-78
2021/09/28 06:47:27;;;;;;;31.52;19.92;;;;;;;16.89;100.00;97645.50;5004009;28;20034;-76
2021/09/28 06:49:53;;;;;;;32.20;20.00;;;;;;;16.86;100.00;97637.66;4991392;28;20033;-76
2021/09/28 06:52:19;;;;;;;29.23;18.35;;;;;;;17.02;100.00;97662.34;4992661;28;20031;-77
2021/09/28 06:54:44;;;;;;;38.30;18.30;;;;;;;16.92;100.00;97650.63;4991584;28;20023;-76
2021/09/28 06:57:10;;;;;;;30.17;17.13;;;;;;;16.98;100.00;97661.75;4992806;28;20509;-77
2021/09/28 06:59:35;;;;;;;42.58;22.05;;;;;;;17.02;100.00;97659.63;4991568;28;20038;-78
2021/09/28 07:02:01;;;;;;;34.85;19.25;;;;;;;16.96;100.00;97652.06;4974851;28;20041;-75
2021/09/28 07:04:26;;;;;;;32.25;19.98;;;;;;;17.09;100.00;97671.66;4992634;28;20113;-78
2021/09/28 07:06:52;;;;;;;33.88;17.88;;;;;;;17.07;100.00;97660.94;5002427;28;20061;-76
2021/09/28 07:09:17;;;;;;;45.15;21.85;;;;;;;17.13;100.00;97655.03;4994424;28;20053;-78
2021/09/28 07:11:43;;;;;;;29.77;17.83;;;;;;;17.27;100.00;97667.34;5006609;28;20414;-76
2021/09/28 07:14:08;;;;;;;25.90;16.63;;;;;;;17.35;100.00;97678.34;5010859;28;20030;-76
2021/09/28 07:16:34;;;;;;;37.42;18.20;;;;;;;17.29;100.00;97666.22;4994565;28;20029;-76
2021/09/28 07:19:00;;;;;;;30.70;17.48;;;;;;;17.45;100.00;97687.38;5010813;28;20033;-77
2021/09/28 07:21:25;;;;;;;26.92;16.65;;;;;;;17.45;100.00;97673.84;5008836;28;20030;-76
2021/09/28 07:23:51;;;;;;;29.98;15.65;;;;;;;17.49;100.00;97683.41;5006639;28;20053;-77
2021/09/28 07:26:16;;;;;;;26.77;15.63;;;;;;;17.51;100.00;97673.31;5011042;28;20057;-76
2021/09/28 07:28:42;;;;;;;33.08;18.23;;;;;;;17.71;100.00;97690.53;4997221;28;20508;-76
2021/09/28 07:31:08;;;;;;;35.33;17.83;;;;;;;17.83;100.00;97687.59;4998002;28;20041;-76
2021/09/28 07:33:33;;;;;;;30.65;18.10;;;;;;;17.99;100.00;97702.47;5015268;28;20033;-76
2021/09/28 07:36:00;;;;;;;31.02;16.85;;;;;;;18.05;100.00;97688.38;4987791;28;20109;-77
2021/09/28 07:38:26;;;;;;;42.35;19.27;;;;;;;18.22;100.00;97701.25;4994698;28;20023;-76
2021/09/28 07:40:51;;;;;;;53.80;21.23;;;;;;;18.21;100.00;97678.72;4994627;28;20034;-76
2021/09/28 07:43:18;;;;;;;38.75;18.35;;;;;;;18.52;100.00;97697.66;4978591;28;20027;-76
2021/09/28 07:45:44;;;;;;;39.50;18.10;;;;;;;18.80;100.00;97716.63;4994832;28;20031;-76
2021/09/28 07:48:10;;;;;;;24.58;13.82;;;;;;;19.04;97.04;97713.50;4994581;28;20022;-76
2021/09/28 07:50:35;;;;;;;27.40;14.43;;;;;;;19.28;92.96;97699.50;4978537;28;20041;-75
2021/09/28 07:53:05;;;;;;;19.08;14.13;;;;;;;19.62;91.62;97717.03;4994501;28;20041;-76
2021/09/28 07:55:31;;;;;;;23.05;13.75;;;;;;;19.89;88.00;97708.94;4994735;28;20025;-78
2021/09/28 07:57:56;;;;;;;24.80;14.05;;;;;;;20.22;85.57;97703.91;4994794;28;20026;-75
2021/09/28 08:00:22;;;;;;;28.08;14.85;;;;;;;20.47;81.63;97722.25;5005501;28;20030;-75
2021/09/28 08:02:48;;;;;;;30.02;15.63;;;;;;;20.72;82.44;97715.22;4997617;28;20117;-75
2021/09/28 08:05:13;;;;;;;35.53;15.07;;;;;;;20.93;80.54;97708.50;4998491;28;20030;-76
2021/09/28 08:07:39;;;;;;;18.38;12.85;;;;;;;21.43;77.41;97721.53;5011194;28;20030;-76
2021/09/28 08:10:09;;;;;;;21.00;12.05;;;;;;;21.76;76.07;97728.94;5006721;28;20034;-76
2021/09/28 08:12:35;;;;;;;19.55;12.32;;;;;;;22.10;71.59;97710.78;4980496;28;20402;-76
2021/09/28 08:15:01;;;;;;;23.95;12.18;;;;;;;22.72;69.65;97730.47;5010422;28;20026;-76
2021/09/28 08:17:26;;;;;;;30.50;12.82;;;;;;;23.12;69.53;97719.66;4994139;28;20026;-75
2021/09/28 08:19:54;;;;;;;25.15;11.85;;;;;;;23.29;67.27;97720.50;5010254;28;20041;-75
2021/09/28 08:22:20;;;;;;;17.92;10.75;;;;;;;22.88;67.68;97716.88;4998178;28;20087;-76
2021/09/28 08:24:48;;;;;;;17.70;11.88;;;;;;;22.68;68.21;97715.44;5009299;28;20026;-75
2021/09/28 08:30:00;;;;;;;17.67;11.75;;;;;;;22.57;70.90;97734.81;4980305;28;20557;-76
2021/09/28 08:32:26;;;;;;;26.45;11.52;;;;;;;22.52;69.21;97740.75;4993984;28;20486;-76
2021/09/28 08:34:55;;;;;;;18.02;10.73;;;;;;;22.42;68.41;97741.94;4993527;28;20031;-76
2021/09/28 08:37:20;;;;;;;20.23;12.02;;;;;;;22.30;69.39;97729.63;4992946;28;20485;-75
2021/09/28 08:39:46;;;;;;;16.25;11.77;;;;;;;22.13;71.81;97729.53;4993791;28;20038;-75
2021/09/28 08:42:13;;;;;;;16.60;11.25;;;;;;;21.81;69.40;97744.81;4994175;28;20642;-76
2021/09/28 08:44:40;;;;;;;24.08;11.10;;;;;;;21.79;67.59;97730.47;4994928;28;20027;-76
2021/09/28 08:47:08;;;;;;;17.52;10.38;;;;;;;22.14;67.14;97735.84;4994804;28;20045;-76
2021/09/28 08:49:35;;;;;;;17.45;10.60;;;;;;;22.09;68.46;97732.72;5003181;28;20030;-76
2021/09/28 08:52:01;;;;;;;14.43;9.68;;;;;;;22.30;66.94;97740.53;4994836;28;20156;-76
2021/09/28 08:54:27;;;;;;;14.80;9.80;;;;;;;22.36;64.91;97726.22;4977168;28;20022;-76
2021/09/28 08:56:53;;;;;;;12.45;9.40;;;;;;;22.53;65.62;97733.44;4994837;28;20029;-75
2021/09/28 08:59:18;;;;;;;14.68;10.18;;;;;;;22.87;64.27;97742.44;4993088;28;20109;-76
2021/09/28 09:02:01;;;;;;;12.40;9.95;;;;;;;23.01;62.87;97733.59;4994498;28;20458;-76
2021/09/28 09:04:30;;;;;;;18.08;10.40;;;;;;;22.97;64.35;97745.03;4993272;28;20046;-76
2021/09/28 09:06:56;;;;;;;17.77;10.75;;;;;;;22.97;64.27;97737.72;5009514;28;20102;-77
2021/09/28 09:09:24;;;;;;;25.33;15.70;;;;;;;22.96;62.02;97735.13;5009215;28;20125;-76
2021/09/28 09:11:51;;;;;;;28.23;17.73;;;;;;;23.42;61.14;97731.81;4994232;28;20081;-76
2021/09/28 09:17:38;;;;;;;36.35;17.58;;;;;;;25.01;54.57;97742.69;4994244;28;20033;-76
2021/09/28 09:20:26;;;;;;;35.53;15.30;;;;;;;25.16;52.30;97729.91;5009000;28;20056;-76
2021/09/28 09:22:53;;;;;;;23.70;15.02;;;;;;;25.06;53.22;97746.56;4994033;28;20418;-77
2021/09/28 09:25:24;;;;;;;32.85;18.35;;;;;;;25.19;54.15;97749.56;4993002;28;20172;-77
2021/09/28 09:27:50;;;;;;;22.70;14.80;;;;;;;25.57;52.88;97752.38;4992490;28;20096;-76
2021/09/28 09:30:22;;;;;;;32.67;16.25;;;;;;;25.95;52.07;97745.88;4992572;28;20117;-77
2021/09/28 09:32:56;;;;;;;23.33;13.73;;;;;;;26.44;50.35;97731.66;4993789;28;20124;-76
2021/09/28 09:35:33;;;;;;;21.17;13.45;;;;;;;26.58;49.47;97744.53;4992667;28;20037;-76
2021/09/28 09:38:03;;;;;;;30.30;13.60;;;;;;;26.88;49.69;97747.09;5008541;28;20057;-77
2021/09/28 09:40:34;;;;;;;19.38;13.40;;;;;;;27.07;47.18;97745.59;4993751;28;20108;-77
2021/09/28 09:43:00;;;;;;;30.63;14.18;;;;;;;26.99;47.46;97748.47;5008695;28;20490;-76
2021/09/28 09:45:26;;;;;;;20.38;13.85;;;;;;;26.53;47.88;97752.47;4992220;28;20030;-76
2021/09/28 09:47:52;;;;;;;28.98;14.57;;;;;;;25.92;48.02;97749.00;5008805;28;20034;-76
2021/09/28 09:50:22;;;;;;;22.70;14.35;;;;;;;25.71;49.25;97759.81;4991776;28;20065;-76
2021/09/28 09:53:02;;;;;;;25.80;14.57;;;;;;;25.11;51.27;97765.19;4992345;28;20081;-76
2021/09/28 09:55:30;;;;;;;26.88;13.27;;;;;;;24.66;52.48;97760.44;4993914;28;20014;-77
2021/09/28 09:57:56;;;;;;;27.15;14.75;;;;;;;24.27;54.66;97760.44;5008466;28;20109;-76
2021/09/28 10:00:22;;;;;;;26.38;13.52;;;;;;;23.79;55.95;97761.31;4992183;28;20457;-76
2021/09/28 10:02:48;;;;;;;23.08;14.35;;;;;;;23.90;55.31;97760.13;5008595;28;20041;-76
2021/09/28 10:05:14;;;;;;;36.47;15.60;;;;;;;23.56;55.63;97741.19;5008363;28;20490;-76
2021/09/28 10:07:40;;;;;;;23.98;14.35;;;;;;;23.64;55.18;97757.56;4993359;28;20034;-76
2021/09/28 10:13:48;;;;;;;33.40;14.38;;;;;;;23.39;55.95;97744.91;4993763;28;20036;-77
2021/09/28 10:16:37;;;;;;;24.90;14.35;;;;;;;23.39;59.01;97764.91;4982405;28;20489;-77
2021/09/28 10:19:05;;;;;;;28.40;15.27;;;;;;;23.51;57.74;97769.00;5008603;28;20050;-76
2021/09/28 10:21:39;;;;;;;24.85;15.52;;;;;;;23.53;57.74;97752.47;5008515;28;20022;-76
2021/09/28 10:24:28;;;;;;;33.38;14.63;;;;;;;24.22;55.97;97769.13;5008067;28;20116;-76
2021/09/28 10:27:00;;;;;;;24.27;13.48;;;;;;;24.24;55.51;97777.19;4991608;28;20026;-76
2021/09/28 10:29:44;;;;;;;21.38;12.52;;;;;;;24.61;52.94;97768.34;4992861;28;20461;-77
2021/09/28 10:32:24;;;;;;;21.70;12.82;;;;;;;25.20;52.48;97775.06;4991876;28;20026;-77
2021/09/28 10:35:05;;;;;;;25.65;11.90;;;;;;;25.27;51.70;97774.16;5007726;28;20442;-77
2021/09/28 10:37:49;;;;;;;22.50;11.55;;;;;;;25.93;49.71;97761.69;5007616;28;20050;-76
2021/09/28 10:40:18;;;;;;;21.50;13.05;;;;;;;26.97;46.37;97761.56;4992980;28;20037;-76
2021/09/28 10:42:54;;;;;;;17.50;11.75;;;;;;;27.12;44.77;97751.38;4992538;28;20023;-77
2021/09/28 10:45:29;;;;;;;25.25;15.98;;;;;;;25.49;49.79;97777.97;5007476;28;20105;-77
2021/09/28 10:47:56;;;;;;;37.03;12.65;;;;;;;26.12;48.91;97774.84;4992645;28;20088;-77
2021/09/28 10:50:35;;;;;;;22.30;12.95;;;;;;;25.85;47.98;97772.69;4991482;28;20030;-77
2021/09/28 10:53:07;;;;;;;19.27;12.27;;;;;;;25.43;49.99;97775.06;5007665;28;20034;-77
2021/09/28 10:55:40;;;;;;;16.40;12.00;;;;;;;25.61;49.87;97781.13;4992518;28;20018;-77
2021/09/28 10:58:22;;;;;;;23.45;12.45;;;;;;;25.70;50.05;97766.31;4992531;28;20026;-77
2021/09/28 11:00:48;;;;;;;24.23;12.32;;;;;;;25.19;50.85;97787.06;4991055;28;20470;-77
2021/09/28 11:03:15;;;;;;;32.90;13.65;;;;;;;24.57;52.30;97761.50;5006711;28;20134;-77
2021/09/28 11:05:54;;;;;;;29.10;13.73;;;;;;;24.54;52.52;97773.66;5007382;28;20027;-76
2021/09/28 11:08:21;;;;;;;20.05;12.90;;;;;;;24.18;55.02;97777.84;4991056;28;20034;-77
2021/09/28 11:11:00;;;;;;;24.38;13.30;;;;;;;23.99;53.46;97759.09;4990962;28;20029;-77
2021/09/28 11:13:31;;;;;;;23.67;13.52;;;;;;;23.72;55.96;97777.53;5007366;28;20031;-77
2021/09/28 11:15:57;;;;;;;25.77;12.98;;;;;;;23.40;56.14;97773.97;4990918;28;20053;-77
2021/09/28 11:18:23;;;;;;;26.73;14.10;;;;;;;23.48;57.22;97776.69;5007345;28;20027;-77
2021/09/28 11:20:48;;;;;;;25.35;14.55;;;;;;;22.93;58.51;97765.47;5007122;28;20034;-76
2021/09/28 11:23:14;;;;;;;25.42;13.23;;;;;;;22.71;60.36;97749.72;4992265;28;20034;-77
2021/09/28 11:25:46;;;;;;;32.15;14.57;;;;;;;22.49;60.36;97767.50;5007191;28;20084;-76
2021/09/28 11:28:13;;;;;;;26.20;12.23;;;;;;;21.96;62.55;97748.69;5007286;28;20032;-77
2021/09/28 11:30:50;;;;;;;18.88;11.20;;;;;;;22.10;62.17;97768.00;5007419;28;20557;-76
2021/09/28 11:33:15;;;;;;;24.45;12.93;;;;;;;21.87;62.96;97777.69;5007466;28;20076;-76